sensor_id;sensor_type;location;lat;lon;timestamp;P1;durP1;ratioP1;P2;durP2;ratioP2
16063;SDS011;8136;53.172;8.256;2023-07-30T00:00:30;4.87;;;3.67;;
16063;SDS011;8136;53.172;8.256;2023-07-30T00:02:57;4.73;;;3.77;;
16063;SDS011;8136;53.172;8.256;2023-07-30T00:07:53;5.30;;;3.93;;
16063;SDS011;8136;53.172;8.256;2023-07-30T00:10:20;5.37;;;4.40;;
16063;SDS011;8136;53.172;8.256;2023-07-30T00:12:47;4.67;;;4.10;;
16063;SDS011;8136;53.172;8.256;2023-07-30T00:15:13;4.30;;;3.87;;
16063;SDS011;8136;53.172;8.256;2023-07-30T00:17:40;5.93;;;4.40;;
16063;SDS011;8136;53.172;8.256;2023-07-30T00:20:07;5.80;;;4.00;;
16063;SDS011;8136;53.172;8.256;2023-07-30T00:22:34;5.00;;;4.27;;
16063;SDS011;8136;53.172;8.256;2023-07-30T00:25:03;10.33;;;4.50;;
16063;SDS011;8136;53.172;8.256;2023-07-30T00:27:30;4.77;;;3.90;;
16063;SDS011;8136;53.172;8.256;2023-07-30T00:29:57;5.40;;;4.13;;
16063;SDS011;8136;53.172;8.256;2023-07-30T00:32:23;5.33;;;3.77;;
16063;SDS011;8136;53.172;8.256;2023-07-30T00:34:50;5.80;;;4.30;;
16063;SDS011;8136;53.172;8.256;2023-07-30T00:37:17;5.67;;;3.83;;
16063;SDS011;8136;53.172;8.256;2023-07-30T00:39:44;4.13;;;3.73;;
16063;SDS011;8136;53.172;8.256;2023-07-30T00:42:12;5.53;;;4.00;;
16063;SDS011;8136;53.172;8.256;2023-07-30T00:44:38;5.73;;;3.73;;
16063;SDS011;8136;53.172;8.256;2023-07-30T00:47:05;4.53;;;4.10;;
16063;SDS011;8136;53.172;8.256;2023-07-30T00:49:32;6.40;;;3.47;;
16063;SDS011;8136;53.172;8.256;2023-07-30T00:51:59;4.77;;;3.50;;
16063;SDS011;8136;53.172;8.256;2023-07-30T00:54:26;7.03;;;4.10;;
16063;SDS011;8136;53.172;8.256;2023-07-30T00:56:53;7.33;;;4.00;;
16063;SDS011;8136;53.172;8.256;2023-07-30T00:59:21;4.53;;;3.67;;
16063;SDS011;8136;53.172;8.256;2023-07-30T01:01:48;4.50;;;3.40;;
16063;SDS011;8136;53.172;8.256;2023-07-30T01:04:17;4.43;;;3.60;;
16063;SDS011;8136;53.172;8.256;2023-07-30T01:06:45;4.87;;;3.63;;
16063;SDS011;8136;53.172;8.256;2023-07-30T01:09:12;4.77;;;3.67;;
16063;SDS011;8136;53.172;8.256;2023-07-30T01:11:39;4.10;;;3.10;;
16063;SDS011;8136;53.172;8.256;2023-07-30T01:14:06;4.20;;;3.43;;
16063;SDS011;8136;53.172;8.256;2023-07-30T01:16:36;4.60;;;3.17;;
16063;SDS011;8136;53.172;8.256;2023-07-30T01:19:03;5.03;;;3.43;;
16063;SDS011;8136;53.172;8.256;2023-07-30T01:21:33;4.80;;;3.07;;
16063;SDS011;8136;53.172;8.256;2023-07-30T01:24:00;8.10;;;3.73;;
16063;SDS011;8136;53.172;8.256;2023-07-30T01:26:27;6.37;;;3.43;;
16063;SDS011;8136;53.172;8.256;2023-07-30T01:29:00;4.97;;;3.27;;
16063;SDS011;8136;53.172;8.256;2023-07-30T01:31:30;7.80;;;3.33;;
16063;SDS011;8136;53.172;8.256;2023-07-30T01:34:00;3.97;;;2.70;;
16063;SDS011;8136;53.172;8.256;2023-07-30T01:36:28;6.90;;;3.10;;
16063;SDS011;8136;53.172;8.256;2023-07-30T01:38:57;5.17;;;3.30;;
16063;SDS011;8136;53.172;8.256;2023-07-30T01:41:25;5.37;;;3.00;;
16063;SDS011;8136;53.172;8.256;2023-07-30T01:43:51;4.27;;;3.10;;
16063;SDS011;8136;53.172;8.256;2023-07-30T01:46:18;3.10;;;2.47;;
16063;SDS011;8136;53.172;8.256;2023-07-30T01:48:45;3.60;;;2.90;;
16063;SDS011;8136;53.172;8.256;2023-07-30T01:51:12;4.57;;;3.13;;
16063;SDS011;8136;53.172;8.256;2023-07-30T01:53:39;6.23;;;3.63;;
16063;SDS011;8136;53.172;8.256;2023-07-30T01:56:07;4.73;;;3.10;;
16063;SDS011;8136;53.172;8.256;2023-07-30T01:58:33;9.03;;;3.50;;
16063;SDS011;8136;53.172;8.256;2023-07-30T02:01:00;6.07;;;3.67;;
16063;SDS011;8136;53.172;8.256;2023-07-30T02:03:27;7.67;;;3.97;;
16063;SDS011;8136;53.172;8.256;2023-07-30T02:05:54;4.27;;;2.90;;
16063;SDS011;8136;53.172;8.256;2023-07-30T02:08:20;6.67;;;3.10;;
16063;SDS011;8136;53.172;8.256;2023-07-30T02:10:54;6.47;;;3.67;;
16063;SDS011;8136;53.172;8.256;2023-07-30T02:13:22;6.63;;;3.13;;
16063;SDS011;8136;53.172;8.256;2023-07-30T02:15:49;6.30;;;3.37;;
16063;SDS011;8136;53.172;8.256;2023-07-30T02:18:16;6.93;;;3.43;;
16063;SDS011;8136;53.172;8.256;2023-07-30T02:20:43;5.73;;;3.50;;
16063;SDS011;8136;53.172;8.256;2023-07-30T02:23:10;7.90;;;4.47;;
16063;SDS011;8136;53.172;8.256;2023-07-30T02:25:37;6.50;;;3.80;;
16063;SDS011;8136;53.172;8.256;2023-07-30T02:28:04;4.87;;;3.70;;
16063;SDS011;8136;53.172;8.256;2023-07-30T02:30:32;6.03;;;4.07;;
16063;SDS011;8136;53.172;8.256;2023-07-30T02:32:59;7.10;;;4.50;;
16063;SDS011;8136;53.172;8.256;2023-07-30T02:35:26;7.67;;;4.27;;
16063;SDS011;8136;53.172;8.256;2023-07-30T02:37:52;5.47;;;4.03;;
16063;SDS011;8136;53.172;8.256;2023-07-30T02:40:19;7.07;;;3.97;;
16063;SDS011;8136;53.172;8.256;2023-07-30T02:42:46;10.77;;;4.23;;
16063;SDS011;8136;53.172;8.256;2023-07-30T02:45:13;5.13;;;4.00;;
16063;SDS011;8136;53.172;8.256;2023-07-30T02:47:41;10.67;;;4.30;;
16063;SDS011;8136;53.172;8.256;2023-07-30T02:50:08;5.03;;;4.00;;
16063;SDS011;8136;53.172;8.256;2023-07-30T02:52:35;11.83;;;4.23;;
16063;SDS011;8136;53.172;8.256;2023-07-30T02:55:02;6.47;;;4.30;;
16063;SDS011;8136;53.172;8.256;2023-07-30T02:57:29;7.07;;;4.10;;
16063;SDS011;8136;53.172;8.256;2023-07-30T02:59:55;8.07;;;4.30;;
16063;SDS011;8136;53.172;8.256;2023-07-30T03:02:22;6.40;;;4.20;;
16063;SDS011;8136;53.172;8.256;2023-07-30T03:04:50;7.93;;;4.03;;
16063;SDS011;8136;53.172;8.256;2023-07-30T03:07:17;9.37;;;4.37;;
16063;SDS011;8136;53.172;8.256;2023-07-30T03:09:44;5.73;;;4.03;;
16063;SDS011;8136;53.172;8.256;2023-07-30T03:12:11;5.17;;;4.33;;
16063;SDS011;8136;53.172;8.256;2023-07-30T03:14:39;9.40;;;4.43;;
16063;SDS011;8136;53.172;8.256;2023-07-30T03:17:06;5.10;;;3.93;;
16063;SDS011;8136;53.172;8.256;2023-07-30T03:19:32;7.73;;;4.07;;
16063;SDS011;8136;53.172;8.256;2023-07-30T03:22:01;7.37;;;3.83;;
16063;SDS011;8136;53.172;8.256;2023-07-30T03:24:28;5.97;;;4.23;;
16063;SDS011;8136;53.172;8.256;2023-07-30T03:26:54;10.47;;;4.43;;
16063;SDS011;8136;53.172;8.256;2023-07-30T03:29:21;9.47;;;4.47;;
16063;SDS011;8136;53.172;8.256;2023-07-30T03:31:48;6.23;;;4.07;;
16063;SDS011;8136;53.172;8.256;2023-07-30T03:34:15;6.93;;;3.63;;
16063;SDS011;8136;53.172;8.256;2023-07-30T03:36:41;12.23;;;4.53;;
16063;SDS011;8136;53.172;8.256;2023-07-30T03:39:09;7.47;;;3.60;;
16063;SDS011;8136;53.172;8.256;2023-07-30T03:41:36;5.63;;;3.23;;
16063;SDS011;8136;53.172;8.256;2023-07-30T03:44:03;6.97;;;3.03;;
16063;SDS011;8136;53.172;8.256;2023-07-30T03:46:30;4.80;;;3.17;;
16063;SDS011;8136;53.172;8.256;2023-07-30T03:48:57;8.93;;;3.50;;
16063;SDS011;8136;53.172;8.256;2023-07-30T03:51:24;7.80;;;3.23;;
16063;SDS011;8136;53.172;8.256;2023-07-30T03:53:50;5.37;;;3.20;;
16063;SDS011;8136;53.172;8.256;2023-07-30T03:56:18;6.47;;;3.27;;
16063;SDS011;8136;53.172;8.256;2023-07-30T03:58:45;7.73;;;3.10;;
16063;SDS011;8136;53.172;8.256;2023-07-30T04:01:12;4.93;;;2.50;;
16063;SDS011;8136;53.172;8.256;2023-07-30T04:03:39;6.90;;;3.13;;
16063;SDS011;8136;53.172;8.256;2023-07-30T04:06:05;6.43;;;3.17;;
16063;SDS011;8136;53.172;8.256;2023-07-30T04:08:32;5.30;;;2.83;;
16063;SDS011;8136;53.172;8.256;2023-07-30T04:10:59;6.67;;;2.70;;
16063;SDS011;8136;53.172;8.256;2023-07-30T04:13:27;8.70;;;2.87;;
16063;SDS011;8136;53.172;8.256;2023-07-30T04:15:54;5.93;;;3.10;;
16063;SDS011;8136;53.172;8.256;2023-07-30T04:18:21;5.00;;;2.70;;
16063;SDS011;8136;53.172;8.256;2023-07-30T04:20:48;8.43;;;2.67;;
16063;SDS011;8136;53.172;8.256;2023-07-30T04:23:15;9.20;;;2.80;;
16063;SDS011;8136;53.172;8.256;2023-07-30T04:25:42;5.27;;;2.50;;
16063;SDS011;8136;53.172;8.256;2023-07-30T04:28:08;8.93;;;2.77;;
16063;SDS011;8136;53.172;8.256;2023-07-30T04:30:37;6.87;;;2.40;;
16063;SDS011;8136;53.172;8.256;2023-07-30T04:33:03;9.57;;;2.60;;
16063;SDS011;8136;53.172;8.256;2023-07-30T04:35:30;4.83;;;2.47;;
16063;SDS011;8136;53.172;8.256;2023-07-30T04:37:57;7.27;;;2.73;;
16063;SDS011;8136;53.172;8.256;2023-07-30T04:40:23;5.43;;;2.60;;
16063;SDS011;8136;53.172;8.256;2023-07-30T04:42:50;9.20;;;2.77;;
16063;SDS011;8136;53.172;8.256;2023-07-30T04:45:17;6.30;;;2.37;;
16063;SDS011;8136;53.172;8.256;2023-07-30T04:47:45;9.87;;;2.70;;
16063;SDS011;8136;53.172;8.256;2023-07-30T04:50:12;3.67;;;2.37;;
16063;SDS011;8136;53.172;8.256;2023-07-30T04:52:39;9.33;;;2.63;;
16063;SDS011;8136;53.172;8.256;2023-07-30T04:55:06;9.27;;;2.60;;
16063;SDS011;8136;53.172;8.256;2023-07-30T04:57:33;8.13;;;2.40;;
16063;SDS011;8136;53.172;8.256;2023-07-30T05:00:00;6.43;;;2.73;;
16063;SDS011;8136;53.172;8.256;2023-07-30T05:02:27;6.00;;;2.57;;
16063;SDS011;8136;53.172;8.256;2023-07-30T05:04:55;9.13;;;2.40;;
16063;SDS011;8136;53.172;8.256;2023-07-30T05:07:22;5.83;;;2.47;;
16063;SDS011;8136;53.172;8.256;2023-07-30T05:09:49;6.37;;;2.60;;
16063;SDS011;8136;53.172;8.256;2023-07-30T05:12:15;3.37;;;2.37;;
16063;SDS011;8136;53.172;8.256;2023-07-30T05:14:42;3.63;;;1.87;;
16063;SDS011;8136;53.172;8.256;2023-07-30T05:17:09;5.70;;;2.43;;
16063;SDS011;8136;53.172;8.256;2023-07-30T05:19:36;5.17;;;3.00;;
16063;SDS011;8136;53.172;8.256;2023-07-30T05:22:04;7.80;;;2.67;;
16063;SDS011;8136;53.172;8.256;2023-07-30T05:24:32;4.73;;;2.67;;
16063;SDS011;8136;53.172;8.256;2023-07-30T05:27:01;6.47;;;2.37;;
16063;SDS011;8136;53.172;8.256;2023-07-30T05:29:28;6.80;;;2.60;;
16063;SDS011;8136;53.172;8.256;2023-07-30T05:31:55;6.63;;;2.70;;
16063;SDS011;8136;53.172;8.256;2023-07-30T05:34:22;5.87;;;2.77;;
16063;SDS011;8136;53.172;8.256;2023-07-30T05:36:49;5.20;;;2.80;;
16063;SDS011;8136;53.172;8.256;2023-07-30T05:39:17;5.30;;;2.50;;
16063;SDS011;8136;53.172;8.256;2023-07-30T05:41:44;11.27;;;3.00;;
16063;SDS011;8136;53.172;8.256;2023-07-30T05:44:10;8.23;;;2.93;;
16063;SDS011;8136;53.172;8.256;2023-07-30T05:46:37;8.60;;;2.93;;
16063;SDS011;8136;53.172;8.256;2023-07-30T05:49:05;3.87;;;2.03;;
16063;SDS011;8136;53.172;8.256;2023-07-30T05:51:32;5.53;;;2.60;;
16063;SDS011;8136;53.172;8.256;2023-07-30T05:53:58;8.87;;;2.70;;
16063;SDS011;8136;53.172;8.256;2023-07-30T05:56:27;9.03;;;3.03;;
16063;SDS011;8136;53.172;8.256;2023-07-30T05:58:53;6.47;;;3.30;;
16063;SDS011;8136;53.172;8.256;2023-07-30T06:01:20;8.27;;;3.43;;
16063;SDS011;8136;53.172;8.256;2023-07-30T06:03:47;12.03;;;3.27;;
16063;SDS011;8136;53.172;8.256;2023-07-30T06:06:14;8.83;;;3.03;;
16063;SDS011;8136;53.172;8.256;2023-07-30T06:08:40;7.53;;;3.00;;
16063;SDS011;8136;53.172;8.256;2023-07-30T06:11:07;5.93;;;3.07;;
16063;SDS011;8136;53.172;8.256;2023-07-30T06:13:35;7.70;;;3.10;;
16063;SDS011;8136;53.172;8.256;2023-07-30T06:16:03;5.53;;;2.73;;
16063;SDS011;8136;53.172;8.256;2023-07-30T06:18:30;10.33;;;3.07;;
16063;SDS011;8136;53.172;8.256;2023-07-30T06:26:00;5.70;;;2.87;;
16063;SDS011;8136;53.172;8.256;2023-07-30T06:28:26;12.37;;;3.13;;
16063;SDS011;8136;53.172;8.256;2023-07-30T06:30:54;9.97;;;3.30;;
16063;SDS011;8136;53.172;8.256;2023-07-30T06:33:21;11.10;;;3.17;;
16063;SDS011;8136;53.172;8.256;2023-07-30T06:35:48;9.97;;;2.83;;
16063;SDS011;8136;53.172;8.256;2023-07-30T06:40:50;7.83;;;3.20;;
16063;SDS011;8136;53.172;8.256;2023-07-30T06:43:17;10.27;;;3.30;;
16063;SDS011;8136;53.172;8.256;2023-07-30T06:45:44;8.07;;;3.00;;
16063;SDS011;8136;53.172;8.256;2023-07-30T06:48:12;6.77;;;3.20;;
16063;SDS011;8136;53.172;8.256;2023-07-30T06:50:40;8.83;;;3.70;;
16063;SDS011;8136;53.172;8.256;2023-07-30T06:53:07;6.63;;;3.30;;
16063;SDS011;8136;53.172;8.256;2023-07-30T06:55:34;6.07;;;3.33;;
16063;SDS011;8136;53.172;8.256;2023-07-30T06:58:01;10.60;;;3.47;;
16063;SDS011;8136;53.172;8.256;2023-07-30T07:00:27;12.80;;;3.03;;
16063;SDS011;8136;53.172;8.256;2023-07-30T07:02:54;8.43;;;2.80;;
16063;SDS011;8136;53.172;8.256;2023-07-30T07:05:22;8.77;;;3.53;;
16063;SDS011;8136;53.172;8.256;2023-07-30T07:07:49;9.63;;;3.20;;
16063;SDS011;8136;53.172;8.256;2023-07-30T07:10:16;12.90;;;3.73;;
16063;SDS011;8136;53.172;8.256;2023-07-30T07:12:43;10.20;;;3.40;;
16063;SDS011;8136;53.172;8.256;2023-07-30T07:15:10;6.13;;;3.10;;
16063;SDS011;8136;53.172;8.256;2023-07-30T07:17:36;13.10;;;3.00;;
16063;SDS011;8136;53.172;8.256;2023-07-30T07:20:04;13.77;;;3.50;;
16063;SDS011;8136;53.172;8.256;2023-07-30T07:22:33;15.83;;;3.40;;
16063;SDS011;8136;53.172;8.256;2023-07-30T07:25:00;9.47;;;3.23;;
16063;SDS011;8136;53.172;8.256;2023-07-30T07:27:27;9.50;;;2.90;;
16063;SDS011;8136;53.172;8.256;2023-07-30T07:29:54;8.80;;;3.30;;
16063;SDS011;8136;53.172;8.256;2023-07-30T07:32:21;7.30;;;3.07;;
16063;SDS011;8136;53.172;8.256;2023-07-30T07:34:48;5.13;;;2.53;;
16063;SDS011;8136;53.172;8.256;2023-07-30T07:37:15;6.80;;;2.67;;
16063;SDS011;8136;53.172;8.256;2023-07-30T07:39:45;6.83;;;3.00;;
16063;SDS011;8136;53.172;8.256;2023-07-30T07:42:12;7.50;;;2.90;;
16063;SDS011;8136;53.172;8.256;2023-07-30T07:44:38;7.83;;;2.70;;
16063;SDS011;8136;53.172;8.256;2023-07-30T07:47:05;11.27;;;3.00;;
16063;SDS011;8136;53.172;8.256;2023-07-30T07:49:32;8.37;;;3.27;;
16063;SDS011;8136;53.172;8.256;2023-07-30T07:51:59;6.50;;;2.73;;
16063;SDS011;8136;53.172;8.256;2023-07-30T07:54:25;7.40;;;3.10;;
16063;SDS011;8136;53.172;8.256;2023-07-30T07:56:54;9.67;;;3.57;;
16063;SDS011;8136;53.172;8.256;2023-07-30T07:59:20;11.63;;;3.50;;
16063;SDS011;8136;53.172;8.256;2023-07-30T08:01:47;9.87;;;3.33;;
16063;SDS011;8136;53.172;8.256;2023-07-30T08:04:14;6.77;;;3.43;;
16063;SDS011;8136;53.172;8.256;2023-07-30T08:06:41;5.60;;;2.73;;
16063;SDS011;8136;53.172;8.256;2023-07-30T08:09:07;11.60;;;3.30;;
16063;SDS011;8136;53.172;8.256;2023-07-30T08:11:35;8.17;;;3.07;;
16063;SDS011;8136;53.172;8.256;2023-07-30T08:14:03;7.77;;;3.80;;
16063;SDS011;8136;53.172;8.256;2023-07-30T08:16:31;8.57;;;3.67;;
16063;SDS011;8136;53.172;8.256;2023-07-30T08:18:58;11.63;;;3.77;;
16063;SDS011;8136;53.172;8.256;2023-07-30T08:21:25;8.57;;;3.80;;
16063;SDS011;8136;53.172;8.256;2023-07-30T08:23:52;7.60;;;3.80;;
16063;SDS011;8136;53.172;8.256;2023-07-30T08:26:20;11.97;;;4.00;;
16063;SDS011;8136;53.172;8.256;2023-07-30T08:28:46;10.03;;;3.30;;
16063;SDS011;8136;53.172;8.256;2023-07-30T08:31:15;11.37;;;3.83;;
16063;SDS011;8136;53.172;8.256;2023-07-30T08:33:42;5.50;;;3.40;;
16063;SDS011;8136;53.172;8.256;2023-07-30T08:36:09;10.40;;;3.60;;
16063;SDS011;8136;53.172;8.256;2023-07-30T08:38:36;10.23;;;3.70;;
16063;SDS011;8136;53.172;8.256;2023-07-30T08:41:03;6.17;;;3.70;;
16063;SDS011;8136;53.172;8.256;2023-07-30T08:43:29;6.93;;;3.47;;
16063;SDS011;8136;53.172;8.256;2023-07-30T08:45:57;6.07;;;3.57;;
16063;SDS011;8136;53.172;8.256;2023-07-30T08:48:26;8.23;;;3.47;;
16063;SDS011;8136;53.172;8.256;2023-07-30T08:50:54;17.10;;;4.43;;
16063;SDS011;8136;53.172;8.256;2023-07-30T08:53:23;7.33;;;3.63;;
16063;SDS011;8136;53.172;8.256;2023-07-30T08:55:51;9.03;;;3.63;;
16063;SDS011;8136;53.172;8.256;2023-07-30T08:58:19;11.07;;;4.20;;
16063;SDS011;8136;53.172;8.256;2023-07-30T09:00:47;8.87;;;3.77;;
16063;SDS011;8136;53.172;8.256;2023-07-30T09:03:16;11.10;;;3.50;;
16063;SDS011;8136;53.172;8.256;2023-07-30T09:05:45;7.30;;;3.27;;
16063;SDS011;8136;53.172;8.256;2023-07-30T09:08:12;9.87;;;3.43;;
16063;SDS011;8136;53.172;8.256;2023-07-30T09:10:40;8.67;;;3.53;;
16063;SDS011;8136;53.172;8.256;2023-07-30T09:13:07;10.53;;;3.87;;
16063;SDS011;8136;53.172;8.256;2023-07-30T09:15:34;9.73;;;3.60;;
16063;SDS011;8136;53.172;8.256;2023-07-30T09:18:03;6.93;;;3.50;;
16063;SDS011;8136;53.172;8.256;2023-07-30T09:20:36;9.23;;;3.40;;
16063;SDS011;8136;53.172;8.256;2023-07-30T09:23:05;8.30;;;3.03;;
16063;SDS011;8136;53.172;8.256;2023-07-30T09:25:32;9.00;;;2.80;;
16063;SDS011;8136;53.172;8.256;2023-07-30T09:27:59;5.93;;;2.90;;
16063;SDS011;8136;53.172;8.256;2023-07-30T09:30:26;4.40;;;2.67;;
16063;SDS011;8136;53.172;8.256;2023-07-30T09:32:54;8.17;;;2.80;;
16063;SDS011;8136;53.172;8.256;2023-07-30T09:35:21;6.17;;;2.60;;
16063;SDS011;8136;53.172;8.256;2023-07-30T09:37:50;8.50;;;3.10;;
16063;SDS011;8136;53.172;8.256;2023-07-30T09:40:31;5.37;;;2.27;;
16063;SDS011;8136;53.172;8.256;2023-07-30T09:42:59;6.27;;;2.60;;
16063;SDS011;8136;53.172;8.256;2023-07-30T09:45:26;7.73;;;2.30;;
16063;SDS011;8136;53.172;8.256;2023-07-30T09:47:53;7.80;;;2.30;;
16063;SDS011;8136;53.172;8.256;2023-07-30T09:50:22;7.03;;;1.93;;
16063;SDS011;8136;53.172;8.256;2023-07-30T09:52:49;6.93;;;2.10;;
16063;SDS011;8136;53.172;8.256;2023-07-30T09:55:16;9.53;;;2.40;;
16063;SDS011;8136;53.172;8.256;2023-07-30T09:57:45;5.67;;;1.67;;
16063;SDS011;8136;53.172;8.256;2023-07-30T10:00:12;7.77;;;2.00;;
16063;SDS011;8136;53.172;8.256;2023-07-30T10:02:39;7.20;;;1.53;;
16063;SDS011;8136;53.172;8.256;2023-07-30T10:05:09;6.97;;;1.80;;
16063;SDS011;8136;53.172;8.256;2023-07-30T10:07:38;5.83;;;2.07;;
16063;SDS011;8136;53.172;8.256;2023-07-30T10:10:10;4.97;;;2.13;;
16063;SDS011;8136;53.172;8.256;2023-07-30T10:12:38;5.87;;;1.90;;
16063;SDS011;8136;53.172;8.256;2023-07-30T10:15:08;5.97;;;2.10;;
16063;SDS011;8136;53.172;8.256;2023-07-30T10:17:36;6.60;;;2.30;;
16063;SDS011;8136;53.172;8.256;2023-07-30T10:20:19;6.37;;;2.20;;
16063;SDS011;8136;53.172;8.256;2023-07-30T10:22:50;5.03;;;1.67;;
16063;SDS011;8136;53.172;8.256;2023-07-30T10:25:20;4.83;;;1.63;;
16063;SDS011;8136;53.172;8.256;2023-07-30T10:27:49;4.20;;;1.90;;
16063;SDS011;8136;53.172;8.256;2023-07-30T10:30:19;6.63;;;1.90;;
16063;SDS011;8136;53.172;8.256;2023-07-30T10:33:01;8.40;;;2.20;;
16063;SDS011;8136;53.172;8.256;2023-07-30T10:35:36;4.53;;;1.80;;
16063;SDS011;8136;53.172;8.256;2023-07-30T10:38:17;7.40;;;2.10;;
16063;SDS011;8136;53.172;8.256;2023-07-30T10:40:59;9.43;;;1.90;;
16063;SDS011;8136;53.172;8.256;2023-07-30T10:43:27;4.17;;;1.97;;
16063;SDS011;8136;53.172;8.256;2023-07-30T10:45:56;3.43;;;1.97;;
16063;SDS011;8136;53.172;8.256;2023-07-30T10:48:30;5.60;;;1.70;;
16063;SDS011;8136;53.172;8.256;2023-07-30T10:50:58;7.20;;;2.13;;
16063;SDS011;8136;53.172;8.256;2023-07-30T10:53:26;6.30;;;2.00;;
16063;SDS011;8136;53.172;8.256;2023-07-30T10:55:53;5.33;;;2.07;;
16063;SDS011;8136;53.172;8.256;2023-07-30T10:58:24;6.53;;;2.00;;
16063;SDS011;8136;53.172;8.256;2023-07-30T11:00:51;5.53;;;2.10;;
16063;SDS011;8136;53.172;8.256;2023-07-30T11:03:19;4.13;;;1.80;;
16063;SDS011;8136;53.172;8.256;2023-07-30T11:05:46;8.37;;;2.37;;
16063;SDS011;8136;53.172;8.256;2023-07-30T11:08:13;4.53;;;1.90;;
16063;SDS011;8136;53.172;8.256;2023-07-30T11:10:41;4.03;;;1.30;;
16063;SDS011;8136;53.172;8.256;2023-07-30T11:13:09;2.60;;;1.27;;
16063;SDS011;8136;53.172;8.256;2023-07-30T11:15:40;3.03;;;0.70;;
16063;SDS011;8136;53.172;8.256;2023-07-30T11:18:08;4.83;;;1.20;;
16063;SDS011;8136;53.172;8.256;2023-07-30T11:20:36;3.77;;;1.30;;
16063;SDS011;8136;53.172;8.256;2023-07-30T11:23:03;5.30;;;1.17;;
16063;SDS011;8136;53.172;8.256;2023-07-30T11:25:45;2.30;;;1.10;;
16063;SDS011;8136;53.172;8.256;2023-07-30T11:28:13;4.47;;;1.03;;
16063;SDS011;8136;53.172;8.256;2023-07-30T11:30:39;1.57;;;0.80;;
16063;SDS011;8136;53.172;8.256;2023-07-30T11:33:06;2.57;;;1.20;;
16063;SDS011;8136;53.172;8.256;2023-07-30T11:35:33;4.10;;;1.10;;
16063;SDS011;8136;53.172;8.256;2023-07-30T11:38:01;3.77;;;1.20;;
16063;SDS011;8136;53.172;8.256;2023-07-30T11:40:28;2.47;;;0.80;;
16063;SDS011;8136;53.172;8.256;2023-07-30T11:42:55;2.77;;;1.00;;
16063;SDS011;8136;53.172;8.256;2023-07-30T11:45:23;5.13;;;1.17;;
16063;SDS011;8136;53.172;8.256;2023-07-30T11:47:51;1.50;;;1.07;;
16063;SDS011;8136;53.172;8.256;2023-07-30T11:50:18;2.97;;;1.20;;
16063;SDS011;8136;53.172;8.256;2023-07-30T11:52:51;2.90;;;0.90;;
16063;SDS011;8136;53.172;8.256;2023-07-30T11:55:20;4.33;;;1.00;;
16063;SDS011;8136;53.172;8.256;2023-07-30T11:57:49;1.90;;;0.73;;
16063;SDS011;8136;53.172;8.256;2023-07-30T12:00:16;1.57;;;0.73;;
16063;SDS011;8136;53.172;8.256;2023-07-30T12:02:47;1.97;;;0.87;;
16063;SDS011;8136;53.172;8.256;2023-07-30T12:05:16;3.40;;;1.23;;
16063;SDS011;8136;53.172;8.256;2023-07-30T12:07:43;2.13;;;0.93;;
16063;SDS011;8136;53.172;8.256;2023-07-30T12:10:13;2.70;;;0.90;;
16063;SDS011;8136;53.172;8.256;2023-07-30T12:12:44;3.07;;;1.20;;
16063;SDS011;8136;53.172;8.256;2023-07-30T12:15:12;1.60;;;0.90;;
16063;SDS011;8136;53.172;8.256;2023-07-30T12:17:39;2.17;;;0.90;;
16063;SDS011;8136;53.172;8.256;2023-07-30T12:20:06;2.07;;;0.90;;
16063;SDS011;8136;53.172;8.256;2023-07-30T12:22:33;1.17;;;0.77;;
16063;SDS011;8136;53.172;8.256;2023-07-30T12:25:01;2.77;;;1.00;;
16063;SDS011;8136;53.172;8.256;2023-07-30T12:27:28;2.10;;;1.20;;
16063;SDS011;8136;53.172;8.256;2023-07-30T12:29:56;6.80;;;1.20;;
16063;SDS011;8136;53.172;8.256;2023-07-30T12:32:23;5.47;;;1.10;;
16063;SDS011;8136;53.172;8.256;2023-07-30T12:34:53;2.23;;;0.90;;
16063;SDS011;8136;53.172;8.256;2023-07-30T12:37:19;1.63;;;1.10;;
16063;SDS011;8136;53.172;8.256;2023-07-30T12:39:46;3.37;;;1.40;;
16063;SDS011;8136;53.172;8.256;2023-07-30T12:42:22;2.77;;;1.40;;
16063;SDS011;8136;53.172;8.256;2023-07-30T12:44:49;3.13;;;1.20;;
16063;SDS011;8136;53.172;8.256;2023-07-30T12:47:17;3.23;;;1.23;;
16063;SDS011;8136;53.172;8.256;2023-07-30T12:49:44;4.03;;;1.70;;
16063;SDS011;8136;53.172;8.256;2023-07-30T12:52:11;1.10;;;0.80;;
16063;SDS011;8136;53.172;8.256;2023-07-30T12:54:37;4.43;;;1.37;;
16063;SDS011;8136;53.172;8.256;2023-07-30T12:57:05;2.73;;;1.13;;
16063;SDS011;8136;53.172;8.256;2023-07-30T12:59:32;4.90;;;1.50;;
16063;SDS011;8136;53.172;8.256;2023-07-30T13:02:01;4.57;;;1.27;;
16063;SDS011;8136;53.172;8.256;2023-07-30T13:04:31;4.03;;;1.43;;
16063;SDS011;8136;53.172;8.256;2023-07-30T13:06:57;4.47;;;1.73;;
16063;SDS011;8136;53.172;8.256;2023-07-30T13:09:24;3.07;;;1.23;;
16063;SDS011;8136;53.172;8.256;2023-07-30T13:11:51;3.73;;;1.40;;
16063;SDS011;8136;53.172;8.256;2023-07-30T13:14:18;1.77;;;1.10;;
16063;SDS011;8136;53.172;8.256;2023-07-30T13:16:45;2.67;;;1.20;;
16063;SDS011;8136;53.172;8.256;2023-07-30T13:19:12;4.50;;;1.13;;
16063;SDS011;8136;53.172;8.256;2023-07-30T13:21:42;7.10;;;1.00;;
16063;SDS011;8136;53.172;8.256;2023-07-30T13:24:09;4.43;;;1.30;;
16063;SDS011;8136;53.172;8.256;2023-07-30T13:26:36;2.87;;;1.47;;
16063;SDS011;8136;53.172;8.256;2023-07-30T13:29:03;2.97;;;1.50;;
16063;SDS011;8136;53.172;8.256;2023-07-30T13:31:32;5.37;;;1.13;;
16063;SDS011;8136;53.172;8.256;2023-07-30T13:33:59;3.93;;;1.20;;
16063;SDS011;8136;53.172;8.256;2023-07-30T13:36:25;4.40;;;1.50;;
16063;SDS011;8136;53.172;8.256;2023-07-30T13:38:54;2.87;;;1.13;;
16063;SDS011;8136;53.172;8.256;2023-07-30T13:41:21;3.33;;;1.53;;
16063;SDS011;8136;53.172;8.256;2023-07-30T13:43:47;3.07;;;1.20;;
16063;SDS011;8136;53.172;8.256;2023-07-30T13:46:14;1.47;;;1.00;;
16063;SDS011;8136;53.172;8.256;2023-07-30T13:48:41;5.80;;;1.50;;
16063;SDS011;8136;53.172;8.256;2023-07-30T13:51:08;1.80;;;1.10;;
16063;SDS011;8136;53.172;8.256;2023-07-30T13:53:35;3.10;;;1.27;;
16063;SDS011;8136;53.172;8.256;2023-07-30T13:56:07;4.80;;;1.70;;
16063;SDS011;8136;53.172;8.256;2023-07-30T13:58:34;2.80;;;1.00;;
16063;SDS011;8136;53.172;8.256;2023-07-30T14:01:01;1.53;;;1.10;;
16063;SDS011;8136;53.172;8.256;2023-07-30T14:03:28;1.83;;;0.80;;
16063;SDS011;8136;53.172;8.256;2023-07-30T14:06:01;2.40;;;0.77;;
16063;SDS011;8136;53.172;8.256;2023-07-30T14:08:28;3.50;;;0.80;;
16063;SDS011;8136;53.172;8.256;2023-07-30T14:10:55;3.90;;;1.10;;
16063;SDS011;8136;53.172;8.256;2023-07-30T14:13:24;5.77;;;0.90;;
16063;SDS011;8136;53.172;8.256;2023-07-30T14:15:51;1.90;;;0.70;;
16063;SDS011;8136;53.172;8.256;2023-07-30T14:18:18;1.90;;;0.70;;
16063;SDS011;8136;53.172;8.256;2023-07-30T14:20:45;2.93;;;0.63;;
16063;SDS011;8136;53.172;8.256;2023-07-30T14:23:11;1.30;;;0.90;;
16063;SDS011;8136;53.172;8.256;2023-07-30T14:25:38;1.20;;;0.70;;
16063;SDS011;8136;53.172;8.256;2023-07-30T14:28:05;4.37;;;0.70;;
16063;SDS011;8136;53.172;8.256;2023-07-30T14:30:33;1.50;;;0.47;;
16063;SDS011;8136;53.172;8.256;2023-07-30T14:33:00;1.87;;;0.60;;
16063;SDS011;8136;53.172;8.256;2023-07-30T14:35:27;4.10;;;0.80;;
16063;SDS011;8136;53.172;8.256;2023-07-30T14:37:54;2.07;;;0.57;;
16063;SDS011;8136;53.172;8.256;2023-07-30T14:40:21;1.50;;;0.60;;
16063;SDS011;8136;53.172;8.256;2023-07-30T14:42:48;3.07;;;1.00;;
16063;SDS011;8136;53.172;8.256;2023-07-30T14:45:15;1.13;;;0.60;;
16063;SDS011;8136;53.172;8.256;2023-07-30T14:47:43;1.50;;;0.77;;
16063;SDS011;8136;53.172;8.256;2023-07-30T14:50:10;2.30;;;0.73;;
16063;SDS011;8136;53.172;8.256;2023-07-30T14:52:37;1.93;;;0.80;;
16063;SDS011;8136;53.172;8.256;2023-07-30T14:55:04;6.93;;;0.73;;
16063;SDS011;8136;53.172;8.256;2023-07-30T14:57:31;6.17;;;0.93;;
16063;SDS011;8136;53.172;8.256;2023-07-30T14:59:58;1.90;;;0.70;;
16063;SDS011;8136;53.172;8.256;2023-07-30T15:02:25;5.40;;;0.93;;
16063;SDS011;8136;53.172;8.256;2023-07-30T15:04:54;3.80;;;0.97;;
16063;SDS011;8136;53.172;8.256;2023-07-30T15:07:21;2.47;;;0.70;;
16063;SDS011;8136;53.172;8.256;2023-07-30T15:09:51;0.87;;;0.50;;
16063;SDS011;8136;53.172;8.256;2023-07-30T15:12:17;1.60;;;0.57;;